createdAt,value
2022-07-29T00:00:42.114Z,21.96
2022-07-29T00:03:09.949Z,21.87
2022-07-29T00:05:37.651Z,21.92
2022-07-29T00:08:09.413Z,21.85
2022-07-29T00:10:40.644Z,21.89
2022-07-29T00:13:08.259Z,21.84
2022-07-29T00:15:35.886Z,21.82
2022-07-29T00:18:05.135Z,21.41
2022-07-29T00:20:35.868Z,21.39
2022-07-29T00:23:05.154Z,21.67
2022-07-29T00:25:32.877Z,21.71
2022-07-29T00:28:03.601Z,21.58
2022-07-29T00:30:31.389Z,21.44
2022-07-29T00:32:59.076Z,21.41
2022-07-29T00:35:45.344Z,21.56
2022-07-29T00:38:14.346Z,21.28
2022-07-29T00:40:43.318Z,21.27
2022-07-29T00:43:12.684Z,21.45
2022-07-29T00:45:40.555Z,21.54
2022-07-29T00:48:09.743Z,21.59
2022-07-29T00:50:39.617Z,21.51
2022-07-29T00:53:09.436Z,21.59
2022-07-29T00:55:40.478Z,21.38
2022-07-29T00:58:08.559Z,21.41
2022-07-29T01:00:36.480Z,21.65
2022-07-29T01:03:04.610Z,21.64
2022-07-29T01:05:50.008Z,21.41
2022-07-29T01:08:22.931Z,21.66
2022-07-29T01:10:51.537Z,21.55
2022-07-29T01:13:26.185Z,21.31
2022-07-29T01:16:14.303Z,21.60
2022-07-29T01:18:49.187Z,21.36
2022-07-29T01:21:37.950Z,21.58
2022-07-29T01:24:21.584Z,21.52
2022-07-29T01:26:51.195Z,21.50
2022-07-29T01:29:26.622Z,21.50
2022-07-29T01:32:07.835Z,21.48
2022-07-29T01:34:50.702Z,21.25
2022-07-29T01:37:24.542Z,21.40
2022-07-29T01:39:54.763Z,21.46
2022-07-29T01:42:29.614Z,21.22
2022-07-29T01:45:03.379Z,21.41
2022-07-29T01:47:36.853Z,21.38
2022-07-29T01:50:10.636Z,21.44
2022-07-29T01:52:45.765Z,21.29
2022-07-29T01:55:16.712Z,21.21
2022-07-29T01:57:47.616Z,21.13
2022-07-29T02:00:23.574Z,21.06
2022-07-29T02:02:52.772Z,21.28
2022-07-29T02:05:24.210Z,21.22
2022-07-29T02:07:54.909Z,21.09
2022-07-29T02:10:26.249Z,20.83
2022-07-29T02:12:57.132Z,21.07
2022-07-29T02:15:27.659Z,21.14
2022-07-29T02:17:58.526Z,21.11
2022-07-29T02:20:28.329Z,21.09
2022-07-29T02:22:57.577Z,21.05
2022-07-29T02:25:36.763Z,21.05
2022-07-29T02:28:07.260Z,20.96
2022-07-29T02:33:34.851Z,20.88
2022-07-29T02:36:07.292Z,20.84
2022-07-29T02:38:52.923Z,20.11
2022-07-29T02:41:22.803Z,20.23
2022-07-29T02:43:55.983Z,20.32
2022-07-29T02:46:33.453Z,20.38
2022-07-29T02:49:06.281Z,20.64
2022-07-29T02:51:44.686Z,20.53
2022-07-29T02:54:19.283Z,20.57
2022-07-29T02:56:48.605Z,20.66
2022-07-29T02:59:19.411Z,20.62
2022-07-29T03:01:49.002Z,20.64
2022-07-29T03:04:19.610Z,20.60
2022-07-29T03:06:48.994Z,20.56
2022-07-29T03:09:16.951Z,20.56
2022-07-29T03:11:49.675Z,20.59
2022-07-29T03:14:21.229Z,20.57
2022-07-29T03:16:51.850Z,20.51
2022-07-29T03:19:19.945Z,20.45
2022-07-29T03:21:47.897Z,20.46
2022-07-29T03:24:33.577Z,20.43
2022-07-29T03:27:01.831Z,20.42
2022-07-29T03:29:33.821Z,20.39
2022-07-29T03:32:08.310Z,20.40
2022-07-29T03:34:37.441Z,20.34
2022-07-29T03:37:05.286Z,20.35
2022-07-29T03:39:37.112Z,20.27
2022-07-29T03:42:07.265Z,20.23
2022-07-29T03:44:36.548Z,20.18
2022-07-29T03:47:08.943Z,20.11
2022-07-29T03:49:39.547Z,20.19
2022-07-29T03:52:07.829Z,20.18
2022-07-29T03:54:35.848Z,20.16
2022-07-29T03:57:05.535Z,20.19
2022-07-29T03:59:42.018Z,20.15
2022-07-29T04:02:14.786Z,20.17
2022-07-29T04:04:44.502Z,20.10
2022-07-29T04:07:13.969Z,20.05
2022-07-29T04:09:41.776Z,20.10
2022-07-29T04:12:10.254Z,20.05
2022-07-29T04:14:38.321Z,20.00
2022-07-29T04:17:06.879Z,20.00
2022-07-29T04:19:36.330Z,20.02
2022-07-29T04:22:04.049Z,19.98
2022-07-29T04:24:31.653Z,20.04
2022-07-29T04:26:59.480Z,20.00
2022-07-29T04:29:27.042Z,19.97
2022-07-29T04:31:54.817Z,19.96
2022-07-29T04:34:22.398Z,19.91
2022-07-29T04:36:51.451Z,19.98
2022-07-29T04:39:23.000Z,19.99
2022-07-29T04:41:54.979Z,19.97
2022-07-29T04:44:28.386Z,19.97
2022-07-29T04:46:57.363Z,19.99
2022-07-29T04:49:25.413Z,20.00
2022-07-29T04:51:54.434Z,20.02
2022-07-29T04:54:22.121Z,19.98
2022-07-29T04:56:49.824Z,19.95
2022-07-29T04:59:17.451Z,20.00
2022-07-29T05:01:45.200Z,20.07
2022-07-29T05:04:13.179Z,20.07
2022-07-29T05:06:41.142Z,20.11
2022-07-29T05:09:12.384Z,20.54
2022-07-29T05:11:40.122Z,20.28
2022-07-29T05:14:07.869Z,20.04
2022-07-29T05:16:35.554Z,20.02
2022-07-29T05:19:03.171Z,20.17
2022-07-29T05:21:33.437Z,20.39
2022-07-29T05:24:01.309Z,20.14
2022-07-29T05:26:32.922Z,20.29
2022-07-29T05:29:00.461Z,20.72
2022-07-29T05:31:33.632Z,20.83
2022-07-29T05:34:01.472Z,21.22
2022-07-29T05:36:29.487Z,21.33
2022-07-29T05:39:00.415Z,21.54
2022-07-29T05:41:28.196Z,21.45
2022-07-29T05:43:57.132Z,21.73
2022-07-29T05:46:24.932Z,22.06
2022-07-29T05:48:53.918Z,22.08
2022-07-29T05:51:24.204Z,21.98
2022-07-29T05:53:52.639Z,21.95
2022-07-29T05:56:21.109Z,21.55
2022-07-29T05:58:48.732Z,21.61
2022-07-29T06:01:18.589Z,21.53
2022-07-29T06:03:47.245Z,21.62
2022-07-29T06:06:15.759Z,21.84
2022-07-29T06:08:52.259Z,21.76
2022-07-29T06:11:20.999Z,21.97
2022-07-29T06:13:49.249Z,21.82
2022-07-29T06:16:28.898Z,21.35
2022-07-29T06:18:58.442Z,21.15
2022-07-29T06:21:26.908Z,21.30
2022-07-29T06:23:58.323Z,21.12
2022-07-29T06:26:30.605Z,21.13
2022-07-29T06:29:04.388Z,21.18
2022-07-29T06:31:33.404Z,21.18
2022-07-29T06:37:30.401Z,21.55
2022-07-29T06:40:22.177Z,21.57
2022-07-29T06:42:56.748Z,21.24
2022-07-29T06:45:32.666Z,21.15
2022-07-29T06:48:04.981Z,21.02
2022-07-29T06:50:32.799Z,21.15
2022-07-29T06:53:00.386Z,21.31
2022-07-29T06:55:30.396Z,21.28
2022-07-29T06:57:57.957Z,21.00
2022-07-29T07:00:25.710Z,21.32
2022-07-29T07:02:53.490Z,21.74
2022-07-29T07:05:22.854Z,22.09
2022-07-29T07:07:54.022Z,22.37
2022-07-29T07:10:21.616Z,21.69
2022-07-29T07:12:51.987Z,22.16
2022-07-29T07:15:22.807Z,22.25
2022-07-29T07:18:10.009Z,22.25
2022-07-29T07:20:42.306Z,22.37
2022-07-29T07:23:09.932Z,22.72
2022-07-29T07:25:37.613Z,22.99
2022-07-29T07:28:08.818Z,23.41
2022-07-29T07:30:38.382Z,23.09
2022-07-29T07:33:06.116Z,22.23
2022-07-29T07:35:34.402Z,22.02
2022-07-29T07:38:03.338Z,22.10
2022-07-29T07:40:38.001Z,22.53
2022-07-29T07:43:06.946Z,22.82
2022-07-29T07:45:34.931Z,23.04
2022-07-29T07:48:02.623Z,23.01
2022-07-29T07:50:30.332Z,23.29
2022-07-29T07:52:59.444Z,22.85
2022-07-29T07:55:38.239Z,22.99
2022-07-29T07:58:20.134Z,23.11
2022-07-29T08:00:48.094Z,22.99
2022-07-29T08:03:17.002Z,23.06
2022-07-29T08:05:46.554Z,23.03
2022-07-29T08:08:14.667Z,23.04
2022-07-29T08:11:09.999Z,23.90
2022-07-29T08:13:38.964Z,24.11
2022-07-29T08:16:14.209Z,23.69
2022-07-29T08:18:51.996Z,23.04
2022-07-29T08:21:20.554Z,23.60
2022-07-29T08:24:00.700Z,23.83
2022-07-29T08:26:32.049Z,23.85
2022-07-29T08:29:01.975Z,24.96
2022-07-29T08:31:36.229Z,24.22
2022-07-29T08:34:04.650Z,25.14
2022-07-29T08:36:33.255Z,24.93
2022-07-29T08:39:01.795Z,24.90
2022-07-29T08:41:31.161Z,25.12
2022-07-29T08:43:59.237Z,25.14
2022-07-29T08:46:27.261Z,24.60
2022-07-29T08:48:55.389Z,25.18
2022-07-29T08:51:24.129Z,24.76
2022-07-29T08:53:52.744Z,24.52
2022-07-29T08:56:21.396Z,25.14
2022-07-29T08:58:52.249Z,24.80
2022-07-29T09:01:35.212Z,24.45
2022-07-29T09:04:06.507Z,24.02
2022-07-29T09:06:38.798Z,24.77
2022-07-29T09:09:10.072Z,24.86
2022-07-29T09:11:37.858Z,25.84
2022-07-29T09:14:15.177Z,25.42
2022-07-29T09:17:12.696Z,25.94
2022-07-29T09:19:45.464Z,25.40
2022-07-29T09:22:38.819Z,24.80
2022-07-29T09:25:11.683Z,25.10
2022-07-29T09:27:39.476Z,24.82
2022-07-29T09:30:11.541Z,24.67
2022-07-29T09:32:58.260Z,24.98
2022-07-29T09:35:28.453Z,25.67
2022-07-29T09:37:57.082Z,25.40
2022-07-29T09:40:28.526Z,25.25
2022-07-29T09:43:06.320Z,26.37
2022-07-29T09:45:35.919Z,25.78
2022-07-29T09:48:16.148Z,25.39
2022-07-29T09:50:45.849Z,25.34
2022-07-29T09:53:13.540Z,25.28
2022-07-29T09:55:50.002Z,24.97
2022-07-29T09:58:22.671Z,25.61
2022-07-29T10:00:53.163Z,25.58
2022-07-29T10:03:21.545Z,25.40
2022-07-29T10:06:13.423Z,25.41
2022-07-29T10:08:43.332Z,25.61
2022-07-29T10:11:12.975Z,26.08
2022-07-29T10:13:40.904Z,26.25
2022-07-29T10:16:10.635Z,26.02
2022-07-29T10:18:40.823Z,27.05
2022-07-29T10:21:09.453Z,26.59
2022-07-29T10:23:46.776Z,26.72
2022-07-29T10:26:15.635Z,26.39
2022-07-29T10:28:43.257Z,26.72
2022-07-29T10:31:21.591Z,26.87
2022-07-29T10:34:01.561Z,26.79
2022-07-29T10:36:40.366Z,26.63
2022-07-29T10:39:41.584Z,26.48
2022-07-29T10:42:29.585Z,26.38
2022-07-29T10:45:02.783Z,27.04
2022-07-29T10:47:35.732Z,27.04
2022-07-29T10:50:05.767Z,26.34
2022-07-29T10:53:04.905Z,26.41
2022-07-29T10:55:47.769Z,27.24
2022-07-29T10:58:25.043Z,26.95
2022-07-29T11:00:54.504Z,27.08
2022-07-29T11:03:50.893Z,26.52
2022-07-29T11:06:30.866Z,26.89
2022-07-29T11:09:20.097Z,26.98
2022-07-29T11:11:51.537Z,26.89
2022-07-29T11:14:40.643Z,27.05
2022-07-29T11:17:09.082Z,26.93
2022-07-29T11:19:44.760Z,27.20
2022-07-29T11:25:42.990Z,27.13
2022-07-29T11:28:22.740Z,27.12
2022-07-29T11:30:53.487Z,26.92
2022-07-29T11:33:54.125Z,26.14
2022-07-29T11:36:27.987Z,26.64
2022-07-29T11:39:36.261Z,26.49
2022-07-29T11:42:41.802Z,26.39
2022-07-29T11:45:42.976Z,26.64
2022-07-29T11:54:05.183Z,27.05
2022-07-29T11:56:44.888Z,26.98
2022-07-29T11:59:19.047Z,27.59
2022-07-29T12:02:36.710Z,26.71
2022-07-29T12:04:53.325Z,26.86
2022-07-29T12:07:03.522Z,26.38
2022-07-29T12:07:34.801Z,27.02
2022-07-29T12:10:05.087Z,26.66
2022-07-29T12:12:41.423Z,26.82
2022-07-29T12:15:21.510Z,27.00
2022-07-29T12:17:51.759Z,26.94
2022-07-29T12:20:26.538Z,26.66
2022-07-29T12:22:56.138Z,26.53
2022-07-29T12:25:33.988Z,26.57
2022-07-29T12:28:14.188Z,26.82
2022-07-29T12:30:45.756Z,26.34
2022-07-29T12:33:21.369Z,26.55
2022-07-29T12:36:05.928Z,26.74
2022-07-29T12:38:38.925Z,26.68
2022-07-29T12:41:06.950Z,26.72
2022-07-29T12:43:34.707Z,26.44
2022-07-29T12:46:14.685Z,26.66
2022-07-29T12:48:53.626Z,26.77
2022-07-29T12:51:30.590Z,26.75
2022-07-29T12:54:14.352Z,26.60
2022-07-29T12:56:59.887Z,26.95
2022-07-29T12:59:27.546Z,27.08
2022-07-29T13:01:55.821Z,27.20
2022-07-29T13:04:29.109Z,27.41
2022-07-29T13:07:21.643Z,27.70
2022-07-29T13:10:15.518Z,27.69
2022-07-29T13:13:05.175Z,27.91
2022-07-29T13:15:39.096Z,27.84
2022-07-29T13:18:19.223Z,28.02
2022-07-29T13:20:50.756Z,27.38
2022-07-29T13:23:18.830Z,27.37
2022-07-29T13:28:54.508Z,27.15
2022-07-29T13:31:23.072Z,27.01
2022-07-29T13:33:50.652Z,26.92
2022-07-29T13:36:22.103Z,26.85
2022-07-29T13:38:54.784Z,26.47
2022-07-29T13:41:22.688Z,26.34
2022-07-29T13:43:56.275Z,26.13
2022-07-29T13:46:24.467Z,25.95
2022-07-29T13:48:57.440Z,25.94
2022-07-29T13:51:26.509Z,25.86
2022-07-29T13:53:54.082Z,25.62
2022-07-29T13:56:53.146Z,25.84
2022-07-29T14:00:06.368Z,25.72
2022-07-29T14:02:35.783Z,25.58
2022-07-29T14:05:12.727Z,25.55
2022-07-29T14:07:46.202Z,25.51
2022-07-29T14:10:59.765Z,25.22
2022-07-29T14:13:27.611Z,25.40
2022-07-29T14:15:55.532Z,25.35
2022-07-29T14:18:25.998Z,25.41
2022-07-29T14:20:53.809Z,25.35
2022-07-29T14:23:24.224Z,25.38
2022-07-29T14:25:54.654Z,25.29
2022-07-29T14:28:22.587Z,25.05
2022-07-29T14:30:53.315Z,24.87
2022-07-29T14:33:21.091Z,24.97
2022-07-29T14:35:48.684Z,24.84
2022-07-29T14:38:16.491Z,24.72
2022-07-29T14:40:46.039Z,24.50
2022-07-29T14:43:18.751Z,24.29
2022-07-29T14:45:55.067Z,23.97
2022-07-29T14:48:29.066Z,24.00
2022-07-29T14:50:58.375Z,24.05
2022-07-29T14:53:28.769Z,24.43
2022-07-29T14:56:06.202Z,24.21
2022-07-29T14:58:49.142Z,23.98
2022-07-29T15:01:19.801Z,24.10
2022-07-29T15:03:47.464Z,23.63
2022-07-29T15:06:15.240Z,23.72
2022-07-29T15:08:42.895Z,23.54
2022-07-29T15:11:11.828Z,23.40
2022-07-29T15:13:51.885Z,23.34
2022-07-29T15:16:22.542Z,23.17
2022-07-29T15:18:50.386Z,22.93
2022-07-29T15:21:18.277Z,22.93
2022-07-29T15:23:45.971Z,22.48
2022-07-29T15:26:14.958Z,22.10
2022-07-29T15:28:45.047Z,22.27
2022-07-29T15:31:12.747Z,21.89
2022-07-29T15:33:41.940Z,21.99
2022-07-29T15:36:11.313Z,22.04
2022-07-29T15:38:41.600Z,22.81
2022-07-29T15:41:09.734Z,23.02
2022-07-29T15:43:38.696Z,22.86
2022-07-29T15:46:24.266Z,21.96
2022-07-29T15:48:51.872Z,21.99
2022-07-29T15:51:19.887Z,21.74
2022-07-29T15:53:53.573Z,22.43
2022-07-29T15:56:21.923Z,21.84
2022-07-29T15:58:50.984Z,21.97
2022-07-29T16:01:18.925Z,21.81
2022-07-29T16:03:46.658Z,22.26
2022-07-29T16:06:15.005Z,22.18
2022-07-29T16:08:42.918Z,21.78
2022-07-29T16:11:10.488Z,21.83
2022-07-29T16:13:38.205Z,21.02
2022-07-29T16:16:07.540Z,21.24
2022-07-29T16:18:35.145Z,21.24
2022-07-29T16:21:02.791Z,21.28
2022-07-29T16:23:30.609Z,21.98
2022-07-29T16:28:31.490Z,22.72
2022-07-29T16:30:59.196Z,22.50
2022-07-29T16:33:28.290Z,21.71
2022-07-29T16:36:15.998Z,22.35
2022-07-29T16:38:46.985Z,22.45
2022-07-29T16:41:15.780Z,21.98
2022-07-29T16:43:43.331Z,21.50
2022-07-29T16:46:15.684Z,22.19
2022-07-29T16:48:49.033Z,21.07
2022-07-29T16:51:16.757Z,21.46
2022-07-29T16:53:44.903Z,21.70
2022-07-29T16:56:13.170Z,22.29
2022-07-29T16:58:43.886Z,22.70
2022-07-29T17:01:12.242Z,21.64
2022-07-29T17:04:00.849Z,22.46
2022-07-29T17:06:30.062Z,20.71
2022-07-29T17:08:57.745Z,20.91
2022-07-29T17:11:53.394Z,21.76
2022-07-29T17:14:13.043Z,22.58
2022-07-29T17:16:40.727Z,22.33
2022-07-29T17:19:08.466Z,22.84
2022-07-29T17:21:37.641Z,22.80
2022-07-29T17:24:16.452Z,22.93
2022-07-29T17:26:44.655Z,22.37
2022-07-29T17:29:12.568Z,21.91
2022-07-29T17:31:40.292Z,20.66
2022-07-29T17:34:08.731Z,20.76
2022-07-29T17:36:37.705Z,21.36
2022-07-29T17:39:07.910Z,21.91
2022-07-29T17:41:35.605Z,22.64
2022-07-29T17:44:03.179Z,22.32
2022-07-29T17:46:31.000Z,22.77
2022-07-29T17:48:58.780Z,22.63
2022-07-29T17:51:27.729Z,22.49
2022-07-29T17:53:59.411Z,22.22
2022-07-29T17:56:27.173Z,22.71
2022-07-29T17:58:54.881Z,22.80
2022-07-29T18:01:24.549Z,22.79
2022-07-29T18:03:52.182Z,22.67
2022-07-29T18:06:19.981Z,22.73
2022-07-29T18:08:48.321Z,22.76
2022-07-29T18:11:17.263Z,22.79
2022-07-29T18:13:45.013Z,22.59
2022-07-29T18:16:12.611Z,22.76
2022-07-29T18:18:40.598Z,22.78
2022-07-29T18:21:08.310Z,22.77
2022-07-29T18:23:36.001Z,22.80
2022-07-29T18:26:04.172Z,22.75
2022-07-29T18:28:33.293Z,22.72
2022-07-29T18:31:02.267Z,22.65
2022-07-29T18:33:30.230Z,22.68
2022-07-29T18:36:11.177Z,22.69
2022-07-29T18:38:39.656Z,22.58
2022-07-29T18:41:07.248Z,22.62
2022-07-29T18:43:36.428Z,22.61
2022-07-29T18:46:05.830Z,22.47
2022-07-29T18:48:33.958Z,22.54
2022-07-29T18:51:02.627Z,22.48
2022-07-29T18:53:37.315Z,22.52
2022-07-29T18:56:05.593Z,22.24
2022-07-29T18:58:33.997Z,22.52
2022-07-29T19:01:02.939Z,22.57
2022-07-29T19:03:30.695Z,22.53
2022-07-29T19:05:58.285Z,22.49
2022-07-29T19:08:25.964Z,22.27
2022-07-29T19:10:54.162Z,22.16
2022-07-29T19:13:21.937Z,22.40
2022-07-29T19:15:49.576Z,22.39
2022-07-29T19:18:18.672Z,22.18
2022-07-29T19:20:46.322Z,22.42
2022-07-29T19:23:14.109Z,22.44
2022-07-29T19:25:53.386Z,22.40
2022-07-29T19:28:21.511Z,22.16
2022-07-29T19:30:49.134Z,22.33
2022-07-29T19:33:19.112Z,22.17
2022-07-29T19:35:49.308Z,21.72
2022-07-29T19:38:19.401Z,22.26
2022-07-29T19:40:47.570Z,22.19
2022-07-29T19:43:50.452Z,22.27
2022-07-29T19:46:02.936Z,22.28
2022-07-29T19:48:32.053Z,22.30
2022-07-29T19:50:59.627Z,22.29
2022-07-29T19:53:27.303Z,22.26
2022-07-29T19:55:54.854Z,22.26
2022-07-29T19:58:22.689Z,21.82
2022-07-29T20:00:54.632Z,22.15
2022-07-29T20:03:22.342Z,22.08
2022-07-29T20:05:52.784Z,22.07
2022-07-29T20:08:20.522Z,21.61
2022-07-29T20:10:48.076Z,21.66
2022-07-29T20:13:15.960Z,21.87
2022-07-29T20:15:43.680Z,21.76
2022-07-29T20:18:11.288Z,21.85
2022-07-29T20:20:38.927Z,21.28
2022-07-29T20:23:08.045Z,21.38
2022-07-29T20:25:35.606Z,21.62
2022-07-29T20:28:03.270Z,21.67
2022-07-29T20:30:30.957Z,21.84
2022-07-29T20:33:00.744Z,21.61
2022-07-29T20:35:28.481Z,21.84
2022-07-29T20:37:56.731Z,21.94
2022-07-29T20:40:26.499Z,21.97
2022-07-29T20:42:54.199Z,21.97
2022-07-29T20:45:21.923Z,21.93
2022-07-29T20:47:50.709Z,21.95
2022-07-29T20:50:18.946Z,21.96
2022-07-29T20:52:46.512Z,21.97
2022-07-29T20:55:14.334Z,21.97
2022-07-29T20:57:43.373Z,21.95
2022-07-29T21:00:12.014Z,21.92
2022-07-29T21:02:39.929Z,21.94
2022-07-29T21:05:07.829Z,21.82
2022-07-29T21:07:35.585Z,21.74
2022-07-29T21:10:03.192Z,21.79
2022-07-29T21:12:30.942Z,21.82
2022-07-29T21:15:00.132Z,21.83
2022-07-29T21:17:27.720Z,21.84
2022-07-29T21:19:55.379Z,21.79
2022-07-29T21:22:23.093Z,21.72
2022-07-29T21:24:50.890Z,21.69
2022-07-29T21:27:38.217Z,21.75
2022-07-29T21:30:09.521Z,21.73
2022-07-29T21:32:37.287Z,21.73
2022-07-29T21:35:18.282Z,21.74
2022-07-29T21:37:53.082Z,21.76
2022-07-29T21:40:20.772Z,21.70
2022-07-29T21:42:48.438Z,21.69
2022-07-29T21:45:18.798Z,21.73
2022-07-29T21:47:46.394Z,21.72
2022-07-29T21:50:13.962Z,21.69
2022-07-29T21:52:41.604Z,21.67
2022-07-29T21:55:10.697Z,21.68
2022-07-29T21:57:39.285Z,21.67
2022-07-29T22:00:11.084Z,21.62
2022-07-29T22:02:40.255Z,21.66
2022-07-29T22:05:08.289Z,21.66
2022-07-29T22:07:54.653Z,21.63
2022-07-29T22:10:24.204Z,21.62
2022-07-29T22:12:52.508Z,21.67
2022-07-29T22:15:20.609Z,21.60
2022-07-29T22:17:50.214Z,21.55
2022-07-29T22:20:17.953Z,21.40
2022-07-29T22:22:45.653Z,20.46
2022-07-29T22:25:13.271Z,20.87
2022-07-29T22:27:41.079Z,21.42
2022-07-29T22:30:09.453Z,21.48
2022-07-29T22:32:37.102Z,21.45
2022-07-29T22:35:06.691Z,21.38
2022-07-29T22:37:34.760Z,21.43
2022-07-29T22:40:02.539Z,21.46
2022-07-29T22:42:30.370Z,21.43
2022-07-29T22:44:58.049Z,21.27
2022-07-29T22:47:45.742Z,20.96
2022-07-29T22:50:14.742Z,21.33
2022-07-29T22:52:42.362Z,21.35
2022-07-29T22:55:10.494Z,21.37
2022-07-29T22:57:38.055Z,21.29
2022-07-29T23:00:07.220Z,21.28
2022-07-29T23:02:36.193Z,21.24
2022-07-29T23:05:03.923Z,21.22
2022-07-29T23:07:32.896Z,21.25
2022-07-29T23:10:00.594Z,21.22
2022-07-29T23:12:28.146Z,21.17
2022-07-29T23:14:55.784Z,21.21
2022-07-29T23:17:23.431Z,21.15
2022-07-29T23:19:51.214Z,21.16
2022-07-29T23:22:18.753Z,21.13
2022-07-29T23:24:47.694Z,21.09
2022-07-29T23:27:15.268Z,21.07
2022-07-29T23:29:42.987Z,21.03
2022-07-29T23:32:10.578Z,21.04
2022-07-29T23:34:38.305Z,21.02
2022-07-29T23:37:06.691Z,20.99
2022-07-29T23:39:34.327Z,21.01
2022-07-29T23:42:03.303Z,20.96
2022-07-29T23:44:30.937Z,20.91
2022-07-29T23:46:58.805Z,20.92
2022-07-29T23:49:26.871Z,20.90
2022-07-29T23:51:54.501Z,20.84
2022-07-29T23:54:22.229Z,20.81
2022-07-29T23:56:49.810Z,20.81
2022-07-29T23:59:18.831Z,20.82
